ZSHC

Hangzhou Xiaoshan International Airport

Hangzhou, China
TAF ZSHC 150907Z 1512/1612 03003MPS 3000 BR FEW010 BKN020 TX18/1606Z TN14/1521Z
Issued Valid From Valid To
Nov-15 @ 09:07 UTC
(4 hours ago)
Nov-15 @ 12:00 UTC
(44 minutes ago)
Nov-16 @ 12:00 UTC
(in 23 hours)
Nov-15 @ 12:00 to Nov-16 @ 12:00
TAF ZSHC 150907Z 1512/1612 03003MPS 3000 BR FEW010 BKN020 TX18/1606Z TN14/1521Z
Wind Visibility Clouds Conditions
30° at 6 knots 2,993 meters
  • Few at 1,000' AGL
  • Broken at 2,000' AGL
  • Mist
TAF ZSHC 150907Z 1512/1612 03003MPS 3000 BR FEW010 BKN020 TX18/1606Z TN14/1521Z
Issued Nov-15 @ 09:07 UTC
(4 hours ago)
Valid From Nov-15 @ 12:00 UTC
(44 minutes ago)
Valid To Nov-16 @ 12:00 UTC
(in 23 hours)
Nov-15 @ 12:00 - Nov-16 @ 12:00
Wind Visibility
30° at 6 knots 2,993 meters
Clouds
  • Few at 1,000' AGL
  • Broken at 2,000' AGL
Conditions
  • Mist